Lanely, Texas
Current Conditions -  °F | °C
As of 12:55 AM on Thursday 23 Oct 2014 (Local Time) from KLXY Reporting Station
Clear Clear  
Wind Chill: 65°   Ceiling: Unl
Heat Index: 65°   Visibility: 10mi
Dew Point: 56°   Wind: 5mph
Humidity: 72%   Direction: 110°ESE
Pressure: 30.11"   Gusts: NA
Location:  31.4723°N, 96.0615°W
Report Text: KLXY 230555Z AUTO 11004KT 10SM CLR 18/13 A3011 RMK AO2 T01840132 10216 20181 402660150
Loading
Personal Weather Stations






























Interactive Weather Map
Tropical Storm Tracking
New forecast layout! Learn more

10-Day Weather Forecast

Advertisements
Track Severe Weather on mobile